Terminal Aerodrome Forecast
Issued by NWS Pittsburgh, PA

Current Version | Previous Version | Graphics & Text | Print | Product List | Glossary On
Versions: 1 2 3 4 5 6 7 8 9 10 11 12 13 14 15 16 17 18 19 20 21 22 23 24
000
FTUS41 KPBZ 270529
TAFPIT
TAF
KPIT 270529Z 2706/2812 VRB04KT P6SM BKN070
      TEMPO 2709/2712 3SM BR BKN015
     FM271700 33004KT P6SM BKN035
     FM280200 VRB03KT P6SM SCT035=

USA.gov is the U.S. government's official web portal to all federal, state and local government web resources and services.